createdAt,value
2019-06-07T00:00:38.043Z,18.10
2019-06-07T00:01:04.133Z,18.10
2019-06-07T00:01:38.808Z,18.10
2019-06-07T00:02:16.369Z,18.10
2019-06-07T00:02:51.869Z,18.10
2019-06-07T00:03:29.886Z,18.10
2019-06-07T00:04:03.059Z,18.10
2019-06-07T00:04:38.136Z,18.10
2019-06-07T00:05:17.149Z,18.10
2019-06-07T00:05:49.713Z,18.10
2019-06-07T00:06:25.923Z,18.10
2019-06-07T00:07:01.768Z,18.10
2019-06-07T00:07:36.968Z,18.10
2019-06-07T00:08:21.342Z,18.10
2019-06-07T00:08:48.492Z,18.10
2019-06-07T00:09:24.655Z,18.10
2019-06-07T00:09:59.837Z,18.10
2019-06-07T00:10:36.951Z,18.10
2019-06-07T00:11:15.666Z,18.10
2019-06-07T00:11:48.053Z,18.10
2019-06-07T00:12:22.649Z,18.10
2019-06-07T00:12:57.666Z,18.10
2019-06-07T00:13:32.686Z,18.10
2019-06-07T00:14:08.622Z,18.10
2019-06-07T00:14:45.469Z,18.10
2019-06-07T00:15:27.975Z,18.10
2019-06-07T00:15:57.129Z,18.10
2019-06-07T00:16:32.307Z,18.00
2019-06-07T00:17:07.907Z,18.00
2019-06-07T00:17:43.666Z,18.00
2019-06-07T00:18:25.308Z,18.10
2019-06-07T00:18:55.524Z,18.00
2019-06-07T00:19:29.980Z,18.00
2019-06-07T00:20:09.373Z,18.00
2019-06-07T00:20:43.661Z,18.00
2019-06-07T00:22:06.219Z,18.00
2019-06-07T00:22:22.543Z,18.00
2019-06-07T00:22:35.201Z,18.00
2019-06-07T00:23:12.312Z,18.00
2019-06-07T00:23:48.528Z,18.00
2019-06-07T00:24:23.600Z,18.00
2019-06-07T00:24:58.123Z,18.00
2019-06-07T00:25:34.423Z,18.00
2019-06-07T00:26:10.885Z,18.00
2019-06-07T00:27:05.541Z,18.00
2019-06-07T00:27:40.716Z,18.00
2019-06-07T00:28:18.371Z,17.90
2019-06-07T00:28:53.134Z,17.90
2019-06-07T00:29:28.177Z,17.90
2019-06-07T00:30:29.673Z,17.90
2019-06-07T00:30:51.236Z,17.90
2019-06-07T00:31:24.414Z,17.90
2019-06-07T00:31:55.258Z,17.90
2019-06-07T00:32:29.744Z,17.80
2019-06-07T00:33:05.117Z,17.80
2019-06-07T00:33:40.015Z,17.80
2019-06-07T00:34:16.360Z,17.80
2019-06-07T00:34:51.280Z,17.80
2019-06-07T00:35:26.459Z,17.80
2019-06-07T00:36:00.808Z,17.80
2019-06-07T00:36:35.988Z,17.80
2019-06-07T00:37:12.297Z,17.80
2019-06-07T00:37:47.089Z,17.80
2019-06-07T00:38:22.270Z,17.80
2019-06-07T00:38:57.373Z,17.70
2019-06-07T00:39:32.021Z,17.70
2019-06-07T00:40:16.453Z,17.70
2019-06-07T00:40:44.243Z,17.70
2019-06-07T00:41:20.224Z,17.70
2019-06-07T00:41:55.305Z,17.70
2019-06-07T00:42:30.386Z,17.70
2019-06-07T00:43:05.850Z,17.70
2019-06-07T00:43:41.089Z,17.70
2019-06-07T00:44:19.894Z,17.70
2019-06-07T00:44:52.201Z,17.70
2019-06-07T00:45:27.435Z,17.70
2019-06-07T00:46:02.645Z,17.70
2019-06-07T00:46:37.152Z,17.70
2019-06-07T00:47:13.065Z,17.70
2019-06-07T00:47:48.315Z,17.70
2019-06-07T00:48:30.827Z,17.70
2019-06-07T00:48:59.400Z,17.70
2019-06-07T00:49:41.069Z,17.70
2019-06-07T00:50:11.292Z,17.70
2019-06-07T00:50:46.350Z,17.70
2019-06-07T00:51:23.897Z,17.60
2019-06-07T00:51:57.798Z,17.60
2019-06-07T00:53:16.898Z,17.70
2019-06-07T00:53:46.517Z,17.70
2019-06-07T00:54:24.044Z,17.60
2019-06-07T00:54:58.824Z,17.60
2019-06-07T00:55:33.320Z,17.60
2019-06-07T00:56:08.361Z,17.60
2019-06-07T00:56:43.377Z,17.60
2019-06-07T00:57:19.416Z,17.60
2019-06-07T00:57:54.761Z,17.60
2019-06-07T00:58:29.840Z,17.50
2019-06-07T00:59:11.067Z,17.50
2019-06-07T00:59:41.016Z,17.50
2019-06-07T01:00:21.928Z,17.50
2019-06-07T01:00:53.307Z,17.50
2019-06-07T01:01:28.322Z,17.50
2019-06-07T01:02:03.347Z,17.40
2019-06-07T01:02:37.810Z,17.40
2019-06-07T01:03:14.838Z,17.40
2019-06-07T01:03:49.719Z,17.40
2019-06-07T01:04:26.417Z,17.40
2019-06-07T01:05:00.903Z,17.40
2019-06-07T01:05:35.891Z,17.30
2019-06-07T01:06:10.322Z,17.30
2019-06-07T01:06:45.522Z,17.30
2019-06-07T01:07:21.958Z,17.30
2019-06-07T01:07:56.768Z,17.30
2019-06-07T01:08:51.181Z,17.30
2019-06-07T01:09:26.230Z,17.30
2019-06-07T01:10:00.699Z,17.20
2019-06-07T01:10:52.850Z,17.20
2019-06-07T01:11:13.550Z,17.20
2019-06-07T01:11:48.117Z,17.20
2019-06-07T01:12:24.583Z,17.10
2019-06-07T01:13:00.328Z,17.10
2019-06-07T01:13:34.951Z,17.10
2019-06-07T01:14:25.273Z,17.10
2019-06-07T01:15:05.778Z,17.10
2019-06-07T01:15:40.380Z,17.00
2019-06-07T01:16:16.210Z,17.00
2019-06-07T01:17:01.245Z,17.00
2019-06-07T01:17:43.876Z,17.00
2019-06-07T01:18:46.723Z,16.90
2019-06-07T01:19:22.266Z,16.80
2019-06-07T01:19:56.871Z,16.80
2019-06-07T01:20:31.878Z,16.80
2019-06-07T01:21:06.314Z,16.80
2019-06-07T01:21:41.300Z,16.70
2019-06-07T01:22:17.833Z,16.70
2019-06-07T01:22:52.561Z,16.70
2019-06-07T01:24:05.488Z,16.70
2019-06-07T01:24:11.833Z,16.70
2019-06-07T01:24:40.607Z,16.70
2019-06-07T01:25:15.903Z,16.60
2019-06-07T01:25:50.968Z,16.60
2019-06-07T01:26:29.433Z,16.60
2019-06-07T01:27:03.078Z,16.60
2019-06-07T01:27:38.121Z,16.60
2019-06-07T01:28:12.578Z,16.60
2019-06-07T01:28:47.960Z,16.60
2019-06-07T01:29:24.985Z,16.60
2019-06-07T01:29:59.563Z,16.60
2019-06-07T01:30:34.613Z,16.60
2019-06-07T01:31:09.633Z,16.50
2019-06-07T01:31:44.329Z,16.50
2019-06-07T01:32:21.115Z,16.50
2019-06-07T01:32:57.432Z,16.50
2019-06-07T01:33:50.491Z,16.50
2019-06-07T01:34:11.746Z,16.40
2019-06-07T01:34:46.931Z,16.40
2019-06-07T01:35:22.088Z,16.40
2019-06-07T01:35:58.062Z,16.40
2019-06-07T01:36:33.131Z,16.40
2019-06-07T01:37:07.616Z,16.40
2019-06-07T01:37:42.629Z,16.40
2019-06-07T01:38:21.182Z,16.30
2019-06-07T01:38:53.941Z,16.30
2019-06-07T01:39:31.651Z,16.30
2019-06-07T01:40:07.480Z,16.30
2019-06-07T01:40:42.020Z,16.30
2019-06-07T01:41:19.866Z,16.30
2019-06-07T01:41:54.122Z,16.30
2019-06-07T01:42:30.490Z,16.20
2019-06-07T01:43:05.376Z,16.20
2019-06-07T01:43:40.488Z,16.20
2019-06-07T01:44:14.948Z,16.20
2019-06-07T01:44:50.610Z,16.20
2019-06-07T01:45:27.112Z,16.20
2019-06-07T01:46:02.700Z,16.20
2019-06-07T01:46:38.240Z,16.10
2019-06-07T01:47:13.930Z,16.10
2019-06-07T01:47:48.871Z,16.10
2019-06-07T01:48:29.547Z,16.10
2019-06-07T01:49:01.415Z,16.10
2019-06-07T01:49:36.821Z,16.10
2019-06-07T01:50:12.520Z,16.10
2019-06-07T01:50:47.540Z,16.10
2019-06-07T01:51:22.193Z,16.10
2019-06-07T01:51:57.380Z,16.00
2019-06-07T01:52:32.403Z,16.00
2019-06-07T01:53:23.384Z,16.00
2019-06-07T01:54:41.275Z,16.00
2019-06-07T01:55:09.111Z,16.00
2019-06-07T01:55:44.457Z,16.00
2019-06-07T01:56:20.502Z,15.90
2019-06-07T01:56:55.814Z,15.90
2019-06-07T01:57:45.414Z,15.90
2019-06-07T01:58:08.919Z,15.90
2019-06-07T01:58:43.513Z,15.90
2019-06-07T01:59:21.899Z,15.90
2019-06-07T01:59:55.461Z,15.90
2019-06-07T02:00:32.505Z,15.90
2019-06-07T02:01:06.776Z,15.90
2019-06-07T02:01:41.817Z,15.90
2019-06-07T02:02:17.684Z,15.90
2019-06-07T02:02:53.013Z,15.90
2019-06-07T02:03:30.673Z,15.90
2019-06-07T02:04:04.480Z,15.80
2019-06-07T02:04:39.461Z,15.80
2019-06-07T02:05:14.878Z,15.80
2019-06-07T02:05:50.445Z,15.80
2019-06-07T02:06:29.692Z,15.80
2019-06-07T02:07:03.541Z,15.80
2019-06-07T02:07:37.978Z,15.70
2019-06-07T02:08:13.024Z,15.70
2019-06-07T02:08:48.022Z,15.70
2019-06-07T02:09:23.569Z,15.70
2019-06-07T02:09:59.228Z,15.70
2019-06-07T02:10:34.238Z,15.70
2019-06-07T02:11:08.660Z,15.70
2019-06-07T02:11:43.864Z,15.70
2019-06-07T02:12:27.957Z,15.70
2019-06-07T02:12:55.052Z,15.70
2019-06-07T02:13:30.798Z,15.60
2019-06-07T02:14:06.680Z,15.60
2019-06-07T02:14:42.182Z,15.60
2019-06-07T02:15:21.312Z,15.60
2019-06-07T02:15:54.683Z,15.60
2019-06-07T02:16:32.347Z,15.60
2019-06-07T02:17:06.011Z,15.60
2019-06-07T02:17:41.054Z,15.60
2019-06-07T02:18:15.477Z,15.50
2019-06-07T02:19:01.701Z,15.50
2019-06-07T02:19:31.147Z,15.50
2019-06-07T02:20:04.276Z,15.50
2019-06-07T02:20:39.293Z,15.50
2019-06-07T02:21:14.373Z,15.50
2019-06-07T02:21:48.978Z,15.50
2019-06-07T02:22:25.757Z,15.50
2019-06-07T02:23:00.937Z,15.50
2019-06-07T02:23:35.365Z,15.40
2019-06-07T02:24:10.545Z,15.40
2019-06-07T02:24:45.731Z,15.40
2019-06-07T02:25:45.502Z,15.40
2019-06-07T02:25:58.055Z,15.40
2019-06-07T02:26:33.062Z,15.40
2019-06-07T02:27:07.552Z,15.40
2019-06-07T02:27:42.530Z,15.40
2019-06-07T02:28:44.369Z,15.40
2019-06-07T02:28:53.781Z,15.40
2019-06-07T02:29:31.892Z,15.40
2019-06-07T02:30:37.227Z,15.40
2019-06-07T02:30:58.991Z,15.40
2019-06-07T02:31:25.230Z,15.40
2019-06-07T02:31:59.810Z,15.40
2019-06-07T02:32:36.774Z,15.40
2019-06-07T02:33:11.126Z,15.30
2019-06-07T02:33:46.183Z,15.30
2019-06-07T02:34:24.007Z,15.30
2019-06-07T02:34:58.412Z,15.30
2019-06-07T02:35:39.944Z,15.30
2019-06-07T02:36:09.614Z,15.30
2019-06-07T02:36:44.701Z,15.30
2019-06-07T02:37:19.733Z,15.30
2019-06-07T02:37:54.202Z,15.30
2019-06-07T02:38:32.643Z,15.30
2019-06-07T02:39:07.907Z,15.30
2019-06-07T02:39:42.374Z,15.30
2019-06-07T02:40:18.898Z,15.30
2019-06-07T02:40:53.802Z,15.30
2019-06-07T02:41:35.343Z,15.30
2019-06-07T02:42:05.445Z,15.30
2019-06-07T02:42:42.728Z,15.30
2019-06-07T02:43:16.766Z,15.30
2019-06-07T02:43:51.746Z,15.30
2019-06-07T02:44:31.840Z,15.30
2019-06-07T02:45:03.860Z,15.30
2019-06-07T02:45:43.389Z,15.20
2019-06-07T02:46:34.326Z,15.20
2019-06-07T02:47:00.227Z,15.20
2019-06-07T02:47:37.976Z,15.20
2019-06-07T02:48:11.992Z,15.20
2019-06-07T02:48:46.456Z,15.20
2019-06-07T02:49:24.160Z,15.20
2019-06-07T02:49:58.269Z,15.20
2019-06-07T02:50:37.977Z,15.20
2019-06-07T02:51:09.502Z,15.20
2019-06-07T02:51:44.927Z,15.20
2019-06-07T02:52:19.250Z,15.20
2019-06-07T02:52:54.438Z,15.20
2019-06-07T02:53:30.864Z,15.20
2019-06-07T02:54:05.982Z,15.20
2019-06-07T02:54:41.125Z,15.20
2019-06-07T02:55:17.305Z,15.20
2019-06-07T02:56:34.276Z,15.20
2019-06-07T02:56:39.108Z,15.20
2019-06-07T02:57:05.120Z,15.20
2019-06-07T02:57:41.776Z,15.20
2019-06-07T02:58:16.373Z,15.20
2019-06-07T02:58:51.386Z,15.20
2019-06-07T02:59:52.785Z,15.20
2019-06-07T03:00:17.127Z,15.20
2019-06-07T03:01:07.849Z,15.20
2019-06-07T03:01:20.946Z,15.20
2019-06-07T03:01:55.971Z,15.20
2019-06-07T03:02:35.674Z,15.20
2019-06-07T03:03:07.520Z,15.10
2019-06-07T03:03:42.949Z,15.10
2019-06-07T03:04:18.105Z,15.10
2019-06-07T03:04:52.535Z,15.10
2019-06-07T03:05:30.538Z,15.10
2019-06-07T03:06:05.545Z,15.10
2019-06-07T03:06:43.913Z,15.10
2019-06-07T03:07:19.190Z,15.00
2019-06-07T03:07:54.498Z,15.00
2019-06-07T03:08:33.643Z,15.00
2019-06-07T03:09:09.137Z,15.00
2019-06-07T03:09:44.962Z,15.00
2019-06-07T03:10:19.426Z,15.00
2019-06-07T03:10:54.605Z,15.00
2019-06-07T03:11:35.670Z,15.00
2019-06-07T03:12:11.475Z,15.00
2019-06-07T03:12:49.097Z,15.00
2019-06-07T03:13:24.288Z,15.00
2019-06-07T03:14:00.953Z,15.10
2019-06-07T03:14:36.570Z,15.10
2019-06-07T03:15:30.097Z,15.10
2019-06-07T03:15:50.529Z,15.10
2019-06-07T03:16:26.741Z,15.10
2019-06-07T03:17:16.744Z,15.10
2019-06-07T03:17:55.727Z,15.10
2019-06-07T03:18:50.138Z,15.10
2019-06-07T03:19:31.998Z,15.20
2019-06-07T03:20:24.268Z,15.20
2019-06-07T03:21:05.499Z,15.20
2019-06-07T03:21:43.126Z,15.20
2019-06-07T03:22:17.736Z,15.20
2019-06-07T03:22:53.707Z,15.20
2019-06-07T03:23:32.405Z,15.20
2019-06-07T03:24:06.257Z,15.20
2019-06-07T03:24:44.171Z,15.30
2019-06-07T03:25:19.584Z,15.20
2019-06-07T03:25:54.546Z,15.30
2019-06-07T03:26:31.225Z,15.30
2019-06-07T03:27:49.439Z,15.30
2019-06-07T03:28:20.270Z,15.30
2019-06-07T03:28:56.264Z,15.30
2019-06-07T03:29:33.825Z,15.30
2019-06-07T03:30:36.045Z,15.40
2019-06-07T03:31:00.857Z,15.40
2019-06-07T03:31:27.494Z,15.30
2019-06-07T03:32:02.014Z,15.40
2019-06-07T03:32:46.253Z,15.40
2019-06-07T03:33:14.290Z,15.40
2019-06-07T03:33:49.215Z,15.40
2019-06-07T03:34:24.285Z,15.40
2019-06-07T03:34:58.700Z,15.40
2019-06-07T03:35:35.290Z,15.40
2019-06-07T03:36:23.474Z,15.40
2019-06-07T03:36:46.645Z,15.30
2019-06-07T03:37:21.660Z,15.30
2019-06-07T03:37:57.724Z,15.40
2019-06-07T03:38:34.859Z,15.40
2019-06-07T03:39:09.138Z,15.40
2019-06-07T03:39:44.373Z,15.40
2019-06-07T03:40:31.707Z,15.40
2019-06-07T03:41:07.524Z,15.30
2019-06-07T03:42:04.754Z,15.40
2019-06-07T03:42:18.765Z,15.40
2019-06-07T03:42:53.953Z,15.40
2019-06-07T03:43:29.860Z,15.40
2019-06-07T03:44:05.594Z,15.40
2019-06-07T03:44:41.828Z,15.40
2019-06-07T03:45:17.116Z,15.40
2019-06-07T03:45:51.756Z,15.40
2019-06-07T03:46:27.302Z,15.40
2019-06-07T03:47:02.581Z,15.40
2019-06-07T03:47:41.390Z,15.40
2019-06-07T03:48:13.973Z,15.40
2019-06-07T03:48:49.121Z,15.40
2019-06-07T03:49:40.107Z,15.40
2019-06-07T03:50:13.103Z,15.40
2019-06-07T03:50:48.141Z,15.50
2019-06-07T03:51:25.222Z,15.50
2019-06-07T03:51:59.310Z,15.50
2019-06-07T03:52:36.891Z,15.50
2019-06-07T03:53:11.150Z,15.50
2019-06-07T03:53:46.598Z,15.50
2019-06-07T03:54:21.714Z,15.50
2019-06-07T03:54:56.146Z,15.50
2019-06-07T03:55:34.880Z,15.50
2019-06-07T03:56:07.937Z,15.50
2019-06-07T03:56:42.470Z,15.50
2019-06-07T03:57:17.661Z,15.50
2019-06-07T03:58:32.577Z,15.50
2019-06-07T03:59:05.714Z,15.60
2019-06-07T03:59:41.587Z,15.60
2019-06-07T04:00:16.565Z,15.60
2019-06-07T04:00:51.598Z,15.60
2019-06-07T04:01:28.577Z,15.60
2019-06-07T04:02:02.915Z,15.60
2019-06-07T04:02:41.750Z,15.60
2019-06-07T04:03:32.849Z,15.60
2019-06-07T04:03:52.024Z,15.70
2019-06-07T04:04:27.385Z,15.70
2019-06-07T04:05:02.431Z,15.70
2019-06-07T04:05:41.220Z,15.70
2019-06-07T04:06:13.559Z,15.70
2019-06-07T04:06:48.642Z,15.70
2019-06-07T04:07:23.049Z,15.70
2019-06-07T04:07:58.227Z,15.70
2019-06-07T04:08:34.440Z,15.80
2019-06-07T04:09:09.371Z,15.80
2019-06-07T04:09:44.898Z,15.80
2019-06-07T04:10:42.761Z,15.80
2019-06-07T04:11:00.311Z,15.90
2019-06-07T04:11:35.186Z,15.90
2019-06-07T04:12:10.837Z,15.90
2019-06-07T04:12:45.510Z,16.00
2019-06-07T04:13:20.506Z,16.00
2019-06-07T04:13:55.539Z,16.10
2019-06-07T04:14:30.996Z,16.10
2019-06-07T04:15:07.054Z,16.10
2019-06-07T04:15:42.241Z,16.20
2019-06-07T04:16:16.801Z,16.20
2019-06-07T04:16:52.554Z,16.30
2019-06-07T04:17:31.175Z,16.30
2019-06-07T04:18:04.239Z,16.30
2019-06-07T04:18:40.885Z,16.40
2019-06-07T04:19:15.900Z,16.40
2019-06-07T04:19:50.448Z,16.50
2019-06-07T04:20:25.497Z,16.50
2019-06-07T04:21:00.561Z,16.50
2019-06-07T04:21:37.391Z,16.50
2019-06-07T04:22:11.664Z,16.60
2019-06-07T04:22:46.670Z,16.60
2019-06-07T04:23:31.289Z,16.60
2019-06-07T04:23:57.857Z,16.70
2019-06-07T04:24:34.684Z,16.70
2019-06-07T04:25:10.683Z,16.70
2019-06-07T04:25:46.114Z,16.70
2019-06-07T04:26:21.210Z,16.70
2019-06-07T04:26:56.592Z,16.70
2019-06-07T04:27:33.015Z,16.70
2019-06-07T04:28:09.245Z,16.70
2019-06-07T04:30:02.085Z,16.70
2019-06-07T04:30:07.182Z,16.70
2019-06-07T04:30:42.195Z,16.80
2019-06-07T04:31:17.670Z,16.80
2019-06-07T04:31:53.012Z,16.80
2019-06-07T04:32:29.703Z,16.80
2019-06-07T04:33:04.249Z,16.80
2019-06-07T04:33:43.251Z,16.90
2019-06-07T04:34:15.491Z,16.90
2019-06-07T04:34:52.030Z,16.90
2019-06-07T04:35:30.980Z,16.90
2019-06-07T04:36:03.861Z,17.00
2019-06-07T04:36:52.727Z,17.00
2019-06-07T04:37:16.627Z,17.00
2019-06-07T04:37:51.218Z,17.10
2019-06-07T04:38:29.367Z,17.10
2019-06-07T04:39:06.195Z,17.10
2019-06-07T04:39:45.091Z,17.10
2019-06-07T04:40:19.010Z,17.10
2019-06-07T04:40:55.325Z,17.10
2019-06-07T04:41:31.040Z,17.10
2019-06-07T04:42:07.320Z,17.10
2019-06-07T04:42:45.247Z,17.10
2019-06-07T04:43:33.547Z,17.10
2019-06-07T04:44:09.725Z,17.10
2019-06-07T04:44:46.578Z,17.10
2019-06-07T04:45:33.823Z,17.10
2019-06-07T04:45:59.352Z,17.10
2019-06-07T04:46:39.843Z,17.10
2019-06-07T04:47:14.259Z,17.10
2019-06-07T04:47:50.494Z,17.10
2019-06-07T04:48:27.193Z,17.10
2019-06-07T04:49:03.724Z,17.10
2019-06-07T04:49:43.455Z,17.10
2019-06-07T04:50:16.725Z,17.10
2019-06-07T04:50:52.937Z,17.10
2019-06-07T04:51:30.140Z,17.20
2019-06-07T04:52:06.101Z,17.10
2019-06-07T04:52:44.386Z,17.10
2019-06-07T04:53:17.060Z,17.20
2019-06-07T04:53:52.174Z,17.20
2019-06-07T04:54:26.950Z,17.20
2019-06-07T04:55:02.019Z,17.20
2019-06-07T04:55:39.875Z,17.20
2019-06-07T04:56:13.444Z,17.20
2019-06-07T04:56:48.501Z,17.20
2019-06-07T04:57:23.571Z,17.20
2019-06-07T04:57:58.116Z,17.20
2019-06-07T04:58:33.402Z,17.20
2019-06-07T04:59:08.572Z,17.20
2019-06-07T05:00:10.925Z,17.20
2019-06-07T05:00:48.483Z,17.20
2019-06-07T05:01:03.444Z,17.20
2019-06-07T05:01:37.460Z,17.20
2019-06-07T05:02:13.052Z,17.20
2019-06-07T05:02:48.110Z,17.20
2019-06-07T05:03:22.668Z,17.20
2019-06-07T05:03:57.675Z,17.20
2019-06-07T05:04:33.204Z,17.20
2019-06-07T05:05:09.164Z,17.20
2019-06-07T05:05:44.394Z,17.20
2019-06-07T05:06:19.620Z,17.20
2019-06-07T05:06:54.104Z,17.20
2019-06-07T05:07:30.939Z,17.20
2019-06-07T05:08:07.831Z,17.20
2019-06-07T05:08:43.699Z,17.20
2019-06-07T05:09:19.217Z,17.30
2019-06-07T05:09:54.313Z,17.20
2019-06-07T05:10:30.635Z,17.30
2019-06-07T05:11:06.018Z,17.30
2019-06-07T05:11:44.855Z,17.30
2019-06-07T05:12:17.555Z,17.30
2019-06-07T05:12:52.674Z,17.30
2019-06-07T05:13:27.781Z,17.30
2019-06-07T05:14:02.285Z,17.30
2019-06-07T05:14:39.867Z,17.30
2019-06-07T05:15:14.856Z,17.30
2019-06-07T05:15:49.356Z,17.30
2019-06-07T05:16:24.427Z,17.40
2019-06-07T05:16:59.505Z,17.30
2019-06-07T05:17:34.710Z,17.30
2019-06-07T05:18:10.730Z,17.30
2019-06-07T05:18:45.813Z,17.40
2019-06-07T05:19:20.275Z,17.40
2019-06-07T05:19:55.538Z,17.40
2019-06-07T05:20:33.578Z,17.40
2019-06-07T05:21:06.949Z,17.40
2019-06-07T05:21:59.873Z,17.40
2019-06-07T05:22:18.938Z,17.40
2019-06-07T05:22:53.455Z,17.40
2019-06-07T05:24:02.492Z,17.40
2019-06-07T05:24:10.432Z,17.50
2019-06-07T05:24:43.931Z,17.40
2019-06-07T05:25:19.346Z,17.50
2019-06-07T05:25:54.434Z,17.50
2019-06-07T05:26:30.491Z,17.50
2019-06-07T05:27:06.028Z,17.50
2019-06-07T05:27:46.398Z,17.50
2019-06-07T05:28:17.668Z,17.50
2019-06-07T05:28:52.930Z,17.50
2019-06-07T05:29:28.069Z,17.50
2019-06-07T05:30:36.487Z,17.50
2019-06-07T05:31:18.198Z,17.50
2019-06-07T05:31:53.571Z,17.50
2019-06-07T05:32:28.663Z,17.60
2019-06-07T05:33:04.276Z,17.60
2019-06-07T05:33:40.591Z,17.60
2019-06-07T05:34:15.687Z,17.60
2019-06-07T05:34:50.810Z,17.60
2019-06-07T05:35:25.777Z,17.60
2019-06-07T05:36:00.877Z,17.60
2019-06-07T05:36:39.133Z,17.70
2019-06-07T05:37:12.415Z,17.70
2019-06-07T05:37:47.551Z,17.70
2019-06-07T05:38:23.425Z,17.70
2019-06-07T05:38:57.911Z,17.70
2019-06-07T05:39:36.865Z,17.70
2019-06-07T05:40:10.069Z,17.80
2019-06-07T05:40:48.674Z,17.80
2019-06-07T05:41:21.899Z,17.80
2019-06-07T05:41:57.026Z,17.80
2019-06-07T05:42:32.138Z,17.80
2019-06-07T05:43:08.231Z,17.80
2019-06-07T05:43:51.522Z,17.90
2019-06-07T05:44:19.572Z,17.80
2019-06-07T05:44:54.666Z,17.90
2019-06-07T05:45:39.249Z,17.90
2019-06-07T05:46:13.807Z,17.90
2019-06-07T05:46:48.946Z,17.90
2019-06-07T05:47:25.424Z,17.90
2019-06-07T05:48:00.131Z,18.00
2019-06-07T05:48:36.667Z,18.00
2019-06-07T05:49:11.974Z,18.00
2019-06-07T05:49:47.393Z,18.00
2019-06-07T05:50:39.290Z,18.00
2019-06-07T05:51:00.496Z,18.00
2019-06-07T05:51:37.260Z,18.00
2019-06-07T05:52:11.658Z,18.00
2019-06-07T05:52:47.570Z,18.10
2019-06-07T05:53:22.293Z,18.10
2019-06-07T05:53:57.408Z,18.10
2019-06-07T05:54:35.053Z,18.10
2019-06-07T05:55:08.950Z,18.10
2019-06-07T05:55:47.526Z,18.10
2019-06-07T05:56:21.092Z,18.10
2019-06-07T05:56:55.609Z,18.20
2019-06-07T05:57:30.810Z,18.20
2019-06-07T05:58:06.014Z,18.20
2019-06-07T05:58:43.019Z,18.20
2019-06-07T05:59:17.435Z,18.30
2019-06-07T05:59:52.640Z,18.30
2019-06-07T06:00:27.208Z,18.30
2019-06-07T06:01:41.565Z,18.30
2019-06-07T06:01:51.503Z,18.30
2019-06-07T06:02:22.768Z,18.30
2019-06-07T06:03:04.090Z,18.30
2019-06-07T06:03:28.972Z,18.40
2019-06-07T06:04:03.749Z,18.40
2019-06-07T06:04:40.226Z,18.40
2019-06-07T06:05:32.767Z,18.40
2019-06-07T06:05:55.213Z,18.40
2019-06-07T06:06:28.825Z,18.40
2019-06-07T06:07:04.237Z,18.40
2019-06-07T06:07:44.528Z,18.40
2019-06-07T06:08:15.764Z,18.50
2019-06-07T06:08:50.858Z,18.50
2019-06-07T06:09:25.644Z,18.50
2019-06-07T06:10:00.876Z,18.50
2019-06-07T06:10:37.674Z,18.50
2019-06-07T06:11:12.508Z,18.50
2019-06-07T06:11:59.699Z,18.50
2019-06-07T06:12:34.571Z,18.60
2019-06-07T06:13:00.709Z,18.60
2019-06-07T06:13:36.846Z,18.60
2019-06-07T06:14:12.611Z,18.60
2019-06-07T06:14:47.224Z,18.60
2019-06-07T06:15:41.669Z,18.60
2019-06-07T06:16:01.933Z,18.70
2019-06-07T06:16:37.056Z,18.70
2019-06-07T06:17:12.297Z,18.70
2019-06-07T06:17:53.449Z,18.70
2019-06-07T06:18:24.447Z,18.70
2019-06-07T06:18:59.560Z,18.70
2019-06-07T06:19:36.655Z,18.70
2019-06-07T06:20:11.274Z,18.80
2019-06-07T06:21:11.754Z,18.80
2019-06-07T06:21:24.213Z,18.80
2019-06-07T06:21:58.668Z,18.80
2019-06-07T06:22:34.292Z,18.80
2019-06-07T06:23:10.704Z,18.80
2019-06-07T06:23:48.128Z,18.90
2019-06-07T06:24:22.173Z,18.90
2019-06-07T06:25:34.413Z,18.90
2019-06-07T06:26:09.799Z,18.90
2019-06-07T06:26:51.262Z,19.00
2019-06-07T06:28:02.527Z,18.90
2019-06-07T06:28:10.994Z,19.00
2019-06-07T06:28:37.203Z,19.00
2019-06-07T06:29:12.632Z,19.00
2019-06-07T06:29:50.293Z,19.10
2019-06-07T06:30:24.742Z,19.10
2019-06-07T06:30:59.382Z,19.10
2019-06-07T06:31:34.546Z,19.10
2019-06-07T06:32:41.266Z,19.10
2019-06-07T06:32:54.379Z,19.10
2019-06-07T06:33:33.481Z,19.10
2019-06-07T06:33:59.729Z,19.10
2019-06-07T06:34:34.267Z,19.20
2019-06-07T06:35:09.628Z,19.20
2019-06-07T06:35:47.497Z,19.20
2019-06-07T06:36:21.838Z,19.20
2019-06-07T06:36:57.159Z,19.20
2019-06-07T06:37:32.259Z,19.30
2019-06-07T06:38:06.791Z,19.30
2019-06-07T06:38:41.710Z,19.30
2019-06-07T06:39:16.959Z,19.30
2019-06-07T06:39:51.453Z,19.30
2019-06-07T06:40:26.912Z,19.30
2019-06-07T06:41:15.061Z,19.30
2019-06-07T06:41:58.481Z,19.40
2019-06-07T06:42:20.959Z,19.40
2019-06-07T06:42:56.060Z,19.40
2019-06-07T06:43:30.862Z,19.40
2019-06-07T06:44:06.781Z,19.50
2019-06-07T06:44:43.814Z,19.50
2019-06-07T06:45:18.379Z,19.50
2019-06-07T06:45:53.506Z,19.50
2019-06-07T06:46:38.863Z,19.50
2019-06-07T06:47:04.958Z,19.50
2019-06-07T06:47:40.787Z,19.60
2019-06-07T06:48:15.947Z,19.60
2019-06-07T06:48:54.856Z,19.60
2019-06-07T06:49:27.236Z,19.60
2019-06-07T06:50:03.088Z,19.70
2019-06-07T06:50:38.723Z,19.60
2019-06-07T06:51:13.751Z,19.70
2019-06-07T06:51:53.243Z,19.70
2019-06-07T06:52:25.087Z,19.70
2019-06-07T06:52:59.970Z,19.70
2019-06-07T06:53:35.029Z,19.80
2019-06-07T06:54:09.539Z,19.80
2019-06-07T06:54:53.593Z,19.80
2019-06-07T06:55:22.176Z,19.80
2019-06-07T06:55:56.674Z,19.90
2019-06-07T06:56:31.583Z,19.90
2019-06-07T06:57:19.186Z,19.90
2019-06-07T06:57:43.502Z,19.90
2019-06-07T06:58:18.649Z,19.90
2019-06-07T06:59:39.666Z,19.90
2019-06-07T07:00:09.382Z,20.00
2019-06-07T07:00:56.807Z,20.00
2019-06-07T07:01:23.437Z,20.00
2019-06-07T07:01:58.514Z,20.00
2019-06-07T07:02:33.578Z,20.00
2019-06-07T07:03:46.934Z,20.00
2019-06-07T07:04:01.166Z,20.00
2019-06-07T07:04:21.673Z,20.00
2019-06-07T07:04:56.172Z,20.10
2019-06-07T07:05:31.077Z,20.10
2019-06-07T07:06:25.217Z,20.10
2019-06-07T07:06:45.528Z,20.10
2019-06-07T07:07:20.931Z,20.10
2019-06-07T07:07:56.185Z,20.10
2019-06-07T07:08:30.737Z,20.20
2019-06-07T07:09:07.009Z,20.20
2019-06-07T07:09:45.502Z,20.20
2019-06-07T07:10:22.209Z,20.20
2019-06-07T07:10:57.382Z,20.30
2019-06-07T07:11:32.568Z,20.30
2019-06-07T07:12:11.678Z,20.30
2019-06-07T07:12:45.361Z,20.30
2019-06-07T07:13:20.861Z,20.40
2019-06-07T07:13:56.922Z,20.40
2019-06-07T07:14:32.303Z,20.40
2019-06-07T07:15:18.214Z,20.40
2019-06-07T07:15:58.003Z,20.50
2019-06-07T07:16:30.524Z,20.50
2019-06-07T07:17:05.757Z,20.50
2019-06-07T07:17:53.720Z,20.50
2019-06-07T07:18:17.960Z,20.50
2019-06-07T07:18:54.650Z,20.50
2019-06-07T07:19:29.593Z,20.60
2019-06-07T07:20:06.198Z,20.60
2019-06-07T07:20:43.506Z,20.60
2019-06-07T07:21:17.737Z,20.60
2019-06-07T07:21:55.378Z,20.60
2019-06-07T07:22:29.995Z,20.70
2019-06-07T07:23:04.801Z,20.70
2019-06-07T07:24:02.683Z,20.70
2019-06-07T07:24:21.550Z,20.70
2019-06-07T07:24:54.521Z,20.70
2019-06-07T07:25:29.588Z,20.80
2019-06-07T07:26:04.720Z,20.80
2019-06-07T07:26:39.313Z,20.80
2019-06-07T07:27:14.515Z,20.90
2019-06-07T07:27:52.120Z,20.90
2019-06-07T07:28:25.869Z,20.90
2019-06-07T07:29:01.045Z,20.90
2019-06-07T07:29:36.283Z,20.90
2019-06-07T07:30:54.883Z,21.00
2019-06-07T07:31:27.211Z,21.00
2019-06-07T07:32:01.989Z,21.00
2019-06-07T07:32:37.169Z,21.10
2019-06-07T07:33:12.525Z,21.10
2019-06-07T07:34:34.899Z,21.10
2019-06-07T07:35:00.955Z,21.20
2019-06-07T07:35:35.500Z,21.20
2019-06-07T07:36:28.662Z,21.20
2019-06-07T07:36:48.330Z,21.30
2019-06-07T07:37:23.450Z,21.30
2019-06-07T07:37:59.779Z,21.30
2019-06-07T07:38:35.241Z,21.30
2019-06-07T07:39:09.853Z,21.30
2019-06-07T07:39:48.079Z,21.40
2019-06-07T07:40:56.367Z,21.40
2019-06-07T07:41:13.375Z,21.40
2019-06-07T07:41:34.984Z,21.50
2019-06-07T07:42:20.786Z,21.50
2019-06-07T07:42:56.296Z,21.50
2019-06-07T07:43:30.434Z,21.50
2019-06-07T07:44:07.707Z,21.60
2019-06-07T07:44:43.249Z,21.60
2019-06-07T07:45:18.637Z,21.60
2019-06-07T07:45:59.223Z,21.70
2019-06-07T07:46:30.426Z,21.70
2019-06-07T07:47:05.955Z,21.70
2019-06-07T07:47:58.249Z,21.70
2019-06-07T07:48:18.643Z,21.70
2019-06-07T07:48:56.035Z,21.80
2019-06-07T07:49:30.865Z,21.80
2019-06-07T07:50:07.161Z,21.80
2019-06-07T07:50:42.061Z,21.80